CYEG/YEG METAR and TAF weather

Enter ICAO airport designator
Station Type Date Time Source
CYEG METAR 2022/01/29 14:00 UTC NOAA

CYEG 291400Z 19005KT 20SM FEW090 BKN120 M02/M06 A2997 RMK AC1AC6 SLP187


Station Type Date Time Source
CYEG Decoded METAR 2022/01/29 14:00 UTC NOAA

Edmonton International, Alta., Canada (CYEG) 53-18N 113-35W 723M
Jan 29, 2022 - 09:00 AM EST / 2022.01.29 1400 UTC
Wind: from the S (190 degrees) at 6 MPH (5 KT):0
Visibility: 20 mile(s):0
Sky conditions: mostly cloudy
Temperature: 28 F (-2 C)
Windchill: 21 F (-6 C):1
Dew Point: 21 F (-6 C)
Relative Humidity: 74%
Pressure (altimeter): 29.97 in. Hg (1014 hPa)
ob: CYEG 291400Z 19005KT 20SM FEW090 BKN120 M02/M06 A2997 RMK AC1AC6 SLP187
cycle: 14

Station Type Date Time Source
CYEG TAF 2022/01/29 12:42 UTC NOAA

TAF CYEG 291140Z 2912/3012 22006KT P6SM SCT130 OVC210
TEMPO 2912/2913 SCT090 BKN130
FM291500 VRB03KT P6SM SCT100
BECMG 2915/2917 15008KT
FM292300 VRB03KT P6SM BKN080
BECMG 3003/3005 24008KT
FM301000 25008KT P6SM FEW080 BKN240
RMK NXT FCST BY 291500Z

Example: see airport list